createdAt,value
2022-08-17T00:02:27.742Z,28.51
2022-08-17T00:05:01.937Z,28.45
2022-08-17T00:11:29.258Z,28.43
2022-08-17T00:14:09.036Z,28.42
2022-08-17T00:27:05.918Z,28.35
2022-08-17T00:29:46.168Z,28.35
2022-08-17T00:33:12.645Z,28.36
2022-08-17T00:35:26.936Z,28.31
2022-08-17T00:38:00.858Z,28.29
2022-08-17T00:54:22.008Z,28.15
2022-08-17T00:57:02.613Z,28.11
2022-08-17T00:59:55.906Z,28.09
2022-08-17T01:02:50.911Z,28.05
2022-08-17T01:05:37.953Z,28.06
2022-08-17T01:08:22.473Z,28.04
2022-08-17T01:21:31.939Z,27.92
2022-08-17T01:24:14.939Z,27.88
2022-08-17T01:26:49.142Z,27.84
2022-08-17T01:29:23.962Z,27.81
2022-08-17T01:32:02.740Z,27.79
2022-08-17T01:34:43.704Z,27.77
2022-08-17T01:48:03.940Z,27.63
2022-08-17T01:50:40.920Z,27.62
2022-08-17T01:53:27.960Z,27.60
2022-08-17T01:56:10.041Z,27.58
2022-08-17T01:58:50.980Z,27.55
2022-08-17T02:15:28.905Z,27.35
2022-08-17T02:18:11.006Z,27.36
2022-08-17T02:20:44.880Z,27.36
2022-08-17T02:23:20.000Z,27.33
2022-08-17T02:25:58.299Z,27.31
2022-08-17T02:28:39.981Z,27.29
2022-08-17T02:41:51.981Z,27.23
2022-08-17T02:44:40.010Z,27.18
2022-08-17T02:47:21.121Z,27.18
2022-08-17T02:49:56.171Z,27.15
2022-08-17T02:52:43.388Z,27.14
2022-08-17T03:06:39.000Z,27.09
2022-08-17T03:09:14.708Z,27.07
2022-08-17T03:11:48.980Z,27.05
2022-08-17T03:14:26.859Z,27.03
2022-08-17T03:17:01.959Z,27.03
2022-08-17T03:19:35.920Z,27.02
2022-08-17T03:33:21.880Z,26.95
2022-08-17T03:36:06.019Z,26.92
2022-08-17T03:38:40.090Z,26.86
2022-08-17T03:41:13.964Z,26.81
2022-08-17T03:43:47.839Z,26.76
2022-08-17T03:46:27.866Z,26.70
2022-08-17T03:49:07.241Z,26.67
2022-08-17T04:02:18.963Z,26.59
2022-08-17T04:05:00.001Z,26.54
2022-08-17T04:07:34.020Z,26.55
2022-08-17T04:10:08.000Z,26.55
2022-08-17T04:12:49.120Z,26.57
2022-08-17T04:29:12.000Z,26.55
2022-08-17T04:31:46.023Z,26.55
2022-08-17T04:34:19.989Z,26.53
2022-08-17T04:36:54.244Z,26.51
2022-08-17T04:39:28.053Z,26.51
2022-08-17T04:56:04.960Z,26.43
2022-08-17T04:58:46.010Z,26.44
2022-08-17T05:01:24.519Z,26.43
2022-08-17T05:04:33.611Z,26.43
2022-08-17T05:07:03.081Z,26.37
2022-08-17T05:09:36.981Z,26.35
2022-08-17T05:22:57.004Z,26.51
2022-08-17T05:25:36.205Z,26.53
2022-08-17T05:28:19.328Z,26.59
2022-08-17T05:31:02.981Z,26.64
2022-08-17T05:33:47.028Z,26.64
2022-08-17T05:49:49.080Z,26.79
2022-08-17T05:52:38.987Z,26.81
2022-08-17T05:55:25.541Z,26.85
2022-08-17T05:58:24.034Z,26.88
2022-08-17T06:01:09.860Z,26.92
2022-08-17T06:04:00.983Z,26.92
2022-08-17T06:14:15.901Z,26.99
2022-08-17T06:17:07.002Z,27.00
2022-08-17T06:19:48.589Z,26.99
2022-08-17T06:22:39.001Z,27.00
2022-08-17T06:25:19.113Z,27.00
2022-08-17T06:28:08.981Z,27.00
2022-08-17T06:41:38.980Z,27.07
2022-08-17T06:44:43.730Z,27.12
2022-08-17T06:47:37.021Z,27.13
2022-08-17T06:50:21.722Z,27.18
2022-08-17T06:53:11.051Z,27.23
2022-08-17T07:09:48.969Z,27.50
2022-08-17T07:12:36.021Z,27.54
2022-08-17T07:15:15.421Z,27.62
2022-08-17T07:17:56.981Z,27.68
2022-08-17T07:20:30.881Z,27.76
2022-08-17T07:23:15.040Z,27.82
2022-08-17T07:36:34.663Z,28.17
2022-08-17T07:39:10.041Z,28.23
2022-08-17T07:41:57.722Z,28.26
2022-08-17T07:44:53.729Z,28.30
2022-08-17T07:47:40.009Z,28.34
2022-08-17T08:01:13.843Z,28.55
2022-08-17T08:03:51.808Z,28.52
2022-08-17T08:06:33.020Z,28.54
2022-08-17T08:09:06.800Z,28.55
2022-08-17T08:11:44.442Z,28.56
2022-08-17T08:14:31.260Z,28.57
2022-08-17T08:27:52.091Z,28.66
2022-08-17T08:30:33.985Z,28.70
2022-08-17T08:33:33.509Z,28.72
2022-08-17T08:37:14.376Z,28.76
2022-08-17T08:39:44.120Z,28.77
2022-08-17T08:42:38.041Z,28.81
2022-08-17T08:56:00.022Z,29.03
2022-08-17T08:58:47.522Z,29.15
2022-08-17T09:01:41.922Z,29.23
2022-08-17T09:05:12.987Z,29.31
2022-08-17T09:08:05.982Z,29.42
2022-08-17T09:21:35.021Z,29.91
2022-08-17T09:24:20.575Z,30.01
2022-08-17T09:27:08.983Z,30.13
2022-08-17T09:29:49.780Z,30.21
2022-08-17T09:32:41.020Z,30.26
2022-08-17T09:35:22.181Z,30.33
2022-08-17T09:48:36.986Z,30.90
2022-08-17T09:51:29.022Z,31.04
2022-08-17T09:54:34.767Z,31.19
2022-08-17T09:57:32.005Z,31.35
2022-08-17T10:00:20.901Z,31.50
2022-08-17T10:03:36.863Z,31.64
2022-08-17T10:16:57.983Z,31.98
2022-08-17T10:19:43.949Z,31.98
2022-08-17T10:22:38.181Z,31.96
2022-08-17T10:25:23.794Z,31.94
2022-08-17T10:28:20.385Z,32.02
2022-08-17T10:41:41.246Z,32.23
2022-08-17T10:44:28.623Z,32.20
2022-08-17T10:47:24.020Z,32.14
2022-08-17T10:50:47.220Z,32.10
2022-08-17T10:54:01.043Z,32.07
2022-08-17T11:11:05.988Z,31.92
2022-08-17T11:14:20.048Z,31.95
2022-08-17T11:17:16.183Z,31.97
2022-08-17T11:21:01.068Z,31.99
2022-08-17T11:24:19.122Z,32.09
2022-08-17T11:37:47.921Z,32.21
2022-08-17T11:41:12.006Z,32.25
2022-08-17T11:44:26.199Z,32.26
2022-08-17T11:47:22.839Z,32.27
2022-08-17T12:01:36.001Z,32.33
2022-08-17T12:04:28.769Z,32.31
2022-08-17T12:07:52.279Z,32.36
2022-08-17T12:10:33.749Z,32.44
2022-08-17T12:13:22.115Z,32.56
2022-08-17T12:30:01.995Z,33.26
2022-08-17T12:32:44.015Z,33.38
2022-08-17T12:35:25.018Z,33.49
2022-08-17T12:38:06.055Z,33.61
2022-08-17T12:40:39.897Z,33.65
2022-08-17T12:43:27.015Z,33.74
2022-08-17T12:56:41.023Z,34.33
2022-08-17T12:59:16.175Z,34.43
2022-08-17T13:02:11.120Z,34.51
2022-08-17T13:04:46.495Z,34.60
2022-08-17T13:07:38.054Z,34.69
2022-08-17T13:23:48.837Z,35.02
2022-08-17T13:26:41.044Z,35.03
2022-08-17T13:29:24.705Z,35.02
2022-08-17T13:32:26.816Z,35.04
2022-08-17T13:49:10.956Z,35.57
2022-08-17T13:51:54.295Z,35.63
2022-08-17T13:54:33.804Z,35.74
2022-08-17T13:57:29.055Z,35.86
2022-08-17T14:00:18.377Z,35.95
2022-08-17T14:02:59.095Z,36.03
2022-08-17T14:16:12.123Z,36.41
2022-08-17T14:18:56.995Z,36.47
2022-08-17T14:21:38.077Z,36.53
2022-08-17T14:24:25.775Z,36.58
2022-08-17T14:27:09.061Z,36.58
2022-08-17T14:29:43.016Z,36.60
2022-08-17T14:42:38.996Z,36.48
2022-08-17T14:45:30.487Z,36.43
2022-08-17T14:48:07.036Z,36.49
2022-08-17T14:50:42.085Z,36.55
2022-08-17T14:53:16.384Z,36.63
2022-08-17T15:09:31.997Z,36.91
2022-08-17T15:12:16.765Z,36.91
2022-08-17T15:14:57.086Z,36.90
2022-08-17T15:17:44.333Z,36.83
2022-08-17T15:20:36.917Z,36.73
2022-08-17T15:23:14.377Z,36.66
2022-08-17T15:36:13.958Z,36.43
2022-08-17T15:38:54.078Z,36.34
2022-08-17T15:41:28.108Z,36.28
2022-08-17T15:44:03.057Z,36.22
2022-08-17T15:46:36.957Z,36.17
2022-08-17T15:49:11.078Z,36.09
2022-08-17T16:03:13.969Z,35.77
2022-08-17T16:05:33.824Z,35.69
2022-08-17T16:08:08.036Z,35.67
2022-08-17T16:10:42.017Z,35.64
2022-08-17T16:13:17.574Z,35.63
2022-08-17T16:15:57.100Z,35.61
2022-08-17T16:18:42.057Z,35.60
2022-08-17T16:31:18.017Z,35.61
2022-08-17T16:34:15.530Z,35.63
2022-08-17T16:36:57.059Z,35.68
2022-08-17T16:39:31.067Z,35.74
2022-08-17T16:42:05.057Z,35.83
2022-08-17T16:44:39.057Z,35.93
2022-08-17T16:57:31.017Z,36.96
2022-08-17T17:00:16.096Z,37.30
2022-08-17T17:02:49.954Z,37.59
2022-08-17T17:05:44.016Z,37.74
2022-08-17T17:08:27.923Z,37.69
2022-08-17T17:25:10.037Z,36.10
2022-08-17T17:28:00.476Z,35.82
2022-08-17T17:31:02.062Z,35.60
2022-08-17T17:33:44.558Z,35.40
2022-08-17T17:36:33.100Z,35.25
2022-08-17T17:39:13.877Z,35.09
2022-08-17T17:49:29.076Z,34.66
2022-08-17T17:52:19.470Z,34.52
2022-08-17T17:55:16.067Z,34.41
2022-08-17T17:58:06.313Z,34.30
2022-08-17T18:00:56.036Z,34.21
2022-08-17T18:03:56.977Z,34.06
2022-08-17T18:17:02.997Z,33.73
2022-08-17T18:19:43.016Z,33.67
2022-08-17T18:22:20.097Z,33.61
2022-08-17T18:25:02.076Z,33.55
2022-08-17T18:27:38.980Z,33.48
2022-08-17T18:30:34.097Z,33.41
2022-08-17T18:44:08.056Z,33.17
2022-08-17T18:46:42.237Z,33.10
2022-08-17T18:49:34.076Z,33.05
2022-08-17T18:52:15.011Z,33.02
2022-08-17T18:55:14.079Z,32.97
2022-08-17T18:57:51.866Z,32.92
2022-08-17T19:10:31.997Z,32.73
2022-08-17T19:13:36.079Z,32.70
2022-08-17T19:16:19.817Z,32.66
2022-08-17T19:19:17.077Z,32.61
2022-08-17T19:21:57.139Z,32.58
2022-08-17T19:24:47.526Z,32.55
2022-08-17T19:38:13.422Z,32.40
2022-08-17T19:41:03.134Z,32.36
2022-08-17T19:44:11.056Z,32.33
2022-08-17T19:46:56.249Z,32.29
2022-08-17T19:49:57.062Z,32.24
2022-08-17T20:03:27.064Z,32.06
2022-08-17T20:06:13.131Z,32.02
2022-08-17T20:09:05.656Z,32.01
2022-08-17T20:11:47.137Z,31.97
2022-08-17T20:14:37.059Z,31.95
2022-08-17T20:17:12.677Z,31.93
2022-08-17T20:19:59.077Z,31.90
2022-08-17T20:30:14.036Z,31.77
2022-08-17T20:33:01.099Z,31.74
2022-08-17T20:35:39.757Z,31.72
2022-08-17T20:38:48.276Z,31.69
2022-08-17T20:41:27.456Z,31.65
2022-08-17T20:44:11.121Z,31.62
2022-08-17T20:57:54.137Z,31.46
2022-08-17T21:00:44.877Z,31.43
2022-08-17T21:03:54.119Z,31.38
2022-08-17T21:06:28.998Z,31.34
2022-08-17T21:09:35.359Z,31.31
2022-08-17T21:23:31.119Z,31.13
2022-08-17T21:26:20.458Z,31.10
2022-08-17T21:29:31.779Z,31.05
2022-08-17T21:32:19.296Z,31.00
2022-08-17T21:35:50.078Z,30.96
2022-08-17T21:38:36.056Z,30.91
2022-08-17T21:51:36.038Z,30.74
2022-08-17T21:54:34.060Z,30.68
2022-08-17T21:57:18.436Z,30.66
2022-08-17T22:00:04.057Z,30.60
2022-08-17T22:02:41.878Z,30.52
2022-08-17T22:05:22.138Z,30.48
2022-08-17T22:18:35.099Z,30.57
2022-08-17T22:21:09.119Z,30.58
2022-08-17T22:23:48.140Z,30.60
2022-08-17T22:26:26.117Z,30.59
2022-08-17T22:29:11.138Z,30.59
2022-08-17T22:46:00.064Z,30.50
2022-08-17T22:48:41.147Z,30.50
2022-08-17T22:51:20.659Z,30.49
2022-08-17T22:54:17.150Z,30.47
2022-08-17T22:57:01.238Z,30.44
2022-08-17T22:59:51.142Z,30.43
2022-08-17T23:10:23.050Z,30.34
2022-08-17T23:13:08.771Z,30.31
2022-08-17T23:15:42.930Z,30.29
2022-08-17T23:18:17.111Z,30.27
2022-08-17T23:20:51.230Z,30.25
2022-08-17T23:23:25.114Z,30.21
2022-08-17T23:37:19.098Z,30.11
2022-08-17T23:39:53.040Z,30.10
2022-08-17T23:42:27.127Z,30.10
2022-08-17T23:45:01.068Z,30.08
2022-08-17T23:47:35.507Z,30.05
2022-08-17T23:50:10.389Z,30.02
